| time (UTC) | temp C | wind direction | speed KPH | gust KPH | rain 1hr cm | rain 24hr cm | rain mn cm | humidity % | barometer mb |
| 20260503060121 | 20 | 286 | 3.2 | 8.0 | 0.00 | 0.00 | 0.00 | 75 | 1009.2 |
| 20260503054548 | 21 | 316 | 1.6 | 8.0 | 0.00 | 0.00 | 0.00 | 74 | 1009.1 |
| 20260503053052 | 21 | 323 | 3.2 | 11.3 | 0.00 | 0.00 | 0.00 | 72 | 1009.0 |
| 20260503051555 | 21 | 258 | 3.2 | 8.0 | 0.00 | 0.00 | 0.00 | 70 | 1009.2 |
| 20260503050100 | 22 | 272 | 3.2 | 11.3 | 0.00 | 0.00 | 0.00 | 69 | 1009.2 |
| 20260503044553 | 22 | 312 | 4.8 | 11.3 | 0.00 | 0.00 | 0.00 | 67 | 1008.9 |
| 20260503043056 | 23 | 289 | 6.4 | 16.1 | 0.00 | 0.00 | 0.00 | 65 | 1008.6 |
| 20260503041600 | 24 | 254 | 6.4 | 17.7 | 0.00 | 0.00 | 0.00 | 61 | 1008.2 |
| 20260503040103 | 25 | 298 | 4.8 | 9.7 | 0.00 | 0.00 | 0.00 | 55 | 1008.2 |
| 20260503034610 | 25 | 257 | 3.2 | 11.3 | 0.00 | 0.00 | 0.00 | 53 | 1007.7 |
| 20260503033100 | 26 | 267 | 4.8 | 11.3 | 0.00 | 0.00 | 0.00 | 46 | 1007.7 |
| 20260503031603 | 26 | 290 | 1.6 | 11.3 | 0.00 | 0.00 | 0.00 | 42 | 1007.5 |
| 20260503030108 | 27 | 279 | 1.6 | 8.0 | 0.00 | 0.00 | 0.00 | 39 | 1007.5 |
| 20260503024555 | 28 | 260 | 4.8 | 11.3 | 0.00 | 0.00 | 0.00 | 36 | 1007.4 |
| 20260503023101 | 28 | 321 | 4.8 | 9.7 | 0.00 | 0.00 | 0.00 | 37 | 1007.3 |
| 20260503021501 | 29 | 23 | 0.0 | 4.8 | 0.00 | 0.00 | 0.00 | 37 | 1007.2 |
| 20260503020112 | 30 | 324 | 3.2 | 6.4 | 0.00 | 0.00 | 0.00 | 36 | 1007.2 |
| 20260503014603 | 30 | 321 | 3.2 | 9.7 | 0.00 | 0.00 | 0.00 | 34 | 1007.3 |
| 20260503013003 | 30 | 328 | 4.8 | 14.5 | 0.00 | 0.00 | 0.00 | 34 | 1007.5 |
| 20260503011507 | 31 | 315 | 4.8 | 12.9 | 0.00 | 0.00 | 0.00 | 33 | 1007.5 |
| 20260503010124 | 31 | 330 | 4.8 | 9.7 | 0.00 | 0.00 | 0.00 | 33 | 1007.5 |
| 20260503004504 | 31 | 322 | 4.8 | 12.9 | 0.00 | 0.00 | 0.00 | 32 | 1007.5 |
| 20260503003009 | 31 | 101 | 4.8 | 12.9 | 0.00 | 0.00 | 0.00 | 32 | 1007.6 |
| 20260503001516 | 31 | 316 | 6.4 | 9.7 | 0.00 | 0.00 | 0.00 | 32 | 1007.6 |
| 20260503000005 | 31 | 23 | 4.8 | 14.5 | 0.00 | 0.00 | 0.00 | 32 | 1007.6 |
| 20260502234514 | 31 | 78 | 6.4 | 12.9 | 0.00 | 0.00 | 0.00 | 32 | 1007.8 |
| 20260502233020 | 32 | 326 | 3.2 | 12.9 | 0.00 | 0.00 | 0.00 | 32 | 1007.9 |
| 20260502231524 | 31 | 333 | 3.2 | 12.9 | 0.00 | 0.00 | 0.00 | 32 | 1008.1 |
| 20260502230026 | 32 | 302 | 4.8 | 9.7 | 0.00 | 0.00 | 0.00 | 32 | 1008.4 |
| 20260502224515 | 31 | 59 | 4.8 | 11.3 | 0.00 | 0.00 | 0.00 | 32 | 1008.7 |
| 20260502223020 | 31 | 299 | 3.2 | 8.0 | 0.00 | 0.00 | 0.00 | 32 | 1009.1 |
| 20260502221524 | 31 | 296 | 4.8 | 11.3 | 0.00 | 0.00 | 0.00 | 33 | 1009.4 |
| 20260502220029 | 31 | 61 | 6.4 | 19.3 | 0.00 | 0.00 | 0.00 | 34 | 1009.7 |
| 20260502214533 | 31 | 38 | 6.4 | 16.1 | 0.00 | 0.00 | 0.00 | 34 | 1009.9 |
| 20260502213028 | 31 | 212 | 0.0 | 14.5 | 0.00 | 0.00 | 0.00 | 35 | 1010.1 |
| 20260502211528 | 31 | 288 | 6.4 | 16.1 | 0.00 | 0.00 | 0.00 | 37 | 1010.4 |
| 20260502210041 | 31 | 290 | 3.2 | 8.0 | 0.00 | 0.00 | 0.00 | 36 | 1010.6 |